createdAt,value
2023-03-26T13:00:50.653Z,99258.19
2023-03-26T13:02:32.516Z,99263.00
2023-03-26T13:04:00.585Z,99264.59
2023-03-26T13:05:08.548Z,99259.47
2023-03-26T13:06:48.556Z,99263.22
2023-03-26T13:08:11.422Z,99258.84
2023-03-26T13:09:24.095Z,99255.44
2023-03-26T13:10:29.410Z,99255.66
2023-03-26T13:11:43.355Z,99247.84
2023-03-26T13:12:57.134Z,99261.22
2023-03-26T13:14:14.150Z,99262.19
2023-03-26T13:15:30.676Z,99255.47
2023-03-26T13:16:32.558Z,99252.44
2023-03-26T13:17:46.619Z,99250.97
2023-03-26T13:19:05.453Z,99253.88
2023-03-26T13:20:16.393Z,99256.00
2023-03-26T13:21:20.823Z,99253.56
2023-03-26T13:22:45.983Z,99243.09
2023-03-26T13:24:10.813Z,99251.31
2023-03-26T13:25:21.573Z,99249.94
2023-03-26T13:26:38.203Z,99250.28
2023-03-26T13:27:55.262Z,99250.72
2023-03-26T13:29:02.816Z,99246.66
2023-03-26T13:30:31.397Z,99243.31
2023-03-26T13:31:49.332Z,99246.31
2023-03-26T13:33:05.116Z,99242.25
2023-03-26T13:34:26.465Z,99243.75
2023-03-26T13:36:00.229Z,99238.22
2023-03-26T13:37:25.118Z,99244.28
2023-03-26T13:38:59.253Z,99237.75
2023-03-26T13:40:32.988Z,99238.50
2023-03-26T13:41:53.592Z,99235.41
2023-03-26T13:43:14.036Z,99237.63
2023-03-26T13:44:46.774Z,99218.09
2023-03-26T13:46:08.873Z,99230.69
2023-03-26T13:47:19.880Z,99225.88
2023-03-26T13:48:27.683Z,99224.25
2023-03-26T13:49:37.407Z,99225.53
2023-03-26T13:50:42.971Z,99220.59
2023-03-26T13:51:52.673Z,99224.31
2023-03-26T13:53:06.865Z,99225.50
2023-03-26T13:54:50.810Z,99223.59
2023-03-26T13:56:01.470Z,99218.34
2023-03-26T13:57:29.583Z,99224.53
2023-03-26T13:58:38.877Z,99221.34
2023-03-26T14:00:22.095Z,99220.56
2023-03-26T14:01:41.374Z,99217.34
2023-03-26T14:02:47.919Z,99222.69
2023-03-26T14:04:08.456Z,99215.44
2023-03-26T14:05:33.640Z,99210.09
2023-03-26T14:06:46.851Z,99204.97
2023-03-26T14:08:14.577Z,99207.72
2023-03-26T14:09:27.147Z,99210.72
2023-03-26T14:10:37.025Z,99204.59
2023-03-26T14:12:00.340Z,99202.13
2023-03-26T14:13:16.639Z,99200.44
2023-03-26T14:14:29.140Z,99198.69
2023-03-26T14:15:44.901Z,99197.13
2023-03-26T14:16:54.667Z,99199.88
2023-03-26T14:18:24.340Z,99196.56
2023-03-26T14:19:53.889Z,99192.28
2023-03-26T14:21:29.584Z,99199.50
2023-03-26T14:22:47.534Z,99192.69
2023-03-26T14:23:58.620Z,99191.91
2023-03-26T14:25:17.099Z,99183.38
2023-03-26T14:26:32.054Z,99186.97
2023-03-26T14:28:11.295Z,99184.53
2023-03-26T14:29:13.173Z,99181.13
2023-03-26T14:30:23.920Z,99184.72
2023-03-26T14:31:51.002Z,99177.69
2023-03-26T14:33:27.069Z,99176.72
2023-03-26T14:34:52.320Z,99176.72
2023-03-26T14:36:13.660Z,99184.91
2023-03-26T14:37:53.659Z,99171.59
2023-03-26T14:39:17.199Z,99176.16
2023-03-26T14:40:25.430Z,99175.50
2023-03-26T14:41:40.544Z,99171.22
2023-03-26T14:43:01.702Z,99169.72
2023-03-26T14:44:12.566Z,99176.97
2023-03-26T14:45:23.570Z,99170.97
2023-03-26T14:46:56.792Z,99176.41
2023-03-26T14:48:20.481Z,99174.81
2023-03-26T14:49:49.936Z,99175.00
2023-03-26T14:51:10.048Z,99171.69
2023-03-26T14:52:20.771Z,99174.34
2023-03-26T14:53:28.086Z,99167.28
2023-03-26T14:54:34.557Z,99171.97
2023-03-26T14:55:49.517Z,99173.00
2023-03-26T14:56:53.927Z,99167.88
2023-03-26T14:57:58.860Z,99167.09
2023-03-26T14:59:12.674Z,99167.22
2023-03-26T15:00:34.948Z,99158.66
2023-03-26T15:02:10.658Z,99163.34
2023-03-26T15:03:31.017Z,99168.78
2023-03-26T15:04:48.126Z,99158.19
2023-03-26T15:06:12.774Z,99163.63
2023-03-26T15:07:20.792Z,99165.53
2023-03-26T15:08:33.355Z,99165.63
2023-03-26T15:09:57.435Z,99156.88
2023-03-26T15:11:27.184Z,99157.94
2023-03-26T15:12:32.938Z,99156.31
2023-03-26T15:14:19.252Z,99152.88
2023-03-26T15:15:26.834Z,99161.06
2023-03-26T15:16:37.779Z,99150.41
2023-03-26T15:17:58.619Z,99156.59
2023-03-26T15:19:22.106Z,99153.91
2023-03-26T15:20:41.855Z,99159.34
2023-03-26T15:21:55.885Z,99155.72
2023-03-26T15:23:00.769Z,99161.06
2023-03-26T15:24:17.676Z,99156.59
2023-03-26T15:25:38.119Z,99153.00
2023-03-26T15:26:42.959Z,99145.09
2023-03-26T15:28:22.503Z,99149.56
2023-03-26T15:30:08.759Z,99145.94
2023-03-26T15:31:26.405Z,99152.88
2023-03-26T15:33:05.341Z,99151.75
2023-03-26T15:34:25.928Z,99155.16
2023-03-26T15:35:33.524Z,99146.22
2023-03-26T15:36:53.844Z,99151.44
2023-03-26T15:38:23.270Z,99143.47
2023-03-26T15:40:01.408Z,99158.59
2023-03-26T15:41:31.046Z,99151.44
2023-03-26T15:42:51.752Z,99147.09
2023-03-26T15:44:23.422Z,99154.97
2023-03-26T15:45:31.493Z,99146.03
2023-03-26T15:46:53.496Z,99147.75
2023-03-26T15:48:11.889Z,99146.03
2023-03-26T15:49:16.652Z,99149.44
2023-03-26T15:50:39.701Z,99154.56
2023-03-26T15:52:09.335Z,99154.56
2023-03-26T15:53:48.235Z,99147.53
2023-03-26T15:55:07.566Z,99149.44
2023-03-26T15:56:16.155Z,99154.75
2023-03-26T15:57:23.588Z,99149.44
2023-03-26T15:58:31.077Z,99152.09
2023-03-26T15:59:52.519Z,99149.63
2023-03-26T16:01:27.155Z,99151.56
2023-03-26T16:02:29.803Z,99152.59
2023-03-26T16:04:22.865Z,99147.34
2023-03-26T16:05:32.335Z,99158.19
2023-03-26T16:06:34.578Z,99151.19
2023-03-26T16:07:39.186Z,99155.72
2023-03-26T16:09:04.885Z,99159.25
2023-03-26T16:10:30.820Z,99151.44
2023-03-26T16:11:57.939Z,99154.41
2023-03-26T16:13:27.347Z,99157.16
2023-03-26T16:14:35.407Z,99153.75
2023-03-26T16:15:37.653Z,99156.50
2023-03-26T16:16:53.039Z,99153.06
2023-03-26T16:18:11.824Z,99148.81
2023-03-26T16:19:20.189Z,99154.22
2023-03-26T16:20:33.495Z,99156.03
2023-03-26T16:21:42.902Z,99151.75
2023-03-26T16:22:53.435Z,99151.75
2023-03-26T16:24:20.555Z,99150.03
2023-03-26T16:25:31.433Z,99153.81
2023-03-26T16:27:08.069Z,99158.41
2023-03-26T16:28:26.533Z,99162.06
2023-03-26T16:29:30.729Z,99154.16
2023-03-26T16:30:33.118Z,99153.44
2023-03-26T16:31:38.239Z,99158.84
2023-03-26T16:32:56.337Z,99160.66
2023-03-26T16:34:09.293Z,99158.16
2023-03-26T16:35:14.390Z,99165.38
2023-03-26T16:36:37.014Z,99158.34
2023-03-26T16:37:50.092Z,99172.69
2023-03-26T16:39:17.285Z,99175.34
2023-03-26T16:40:22.642Z,99175.28
2023-03-26T16:41:30.538Z,99177.75
2023-03-26T16:42:40.108Z,99175.84
2023-03-26T16:43:55.955Z,99178.31
2023-03-26T16:45:14.706Z,99176.41
2023-03-26T16:46:36.706Z,99175.47
2023-03-26T16:48:06.463Z,99171.75
2023-03-26T16:49:21.635Z,99177.88
2023-03-26T16:50:37.193Z,99169.06
2023-03-26T16:51:39.392Z,99174.19
2023-03-26T16:52:55.040Z,99169.78
2023-03-26T16:54:39.793Z,99175.13
2023-03-26T16:55:57.888Z,99171.88
2023-03-26T16:57:17.295Z,99181.81
2023-03-26T16:58:41.042Z,99184.59
2023-03-26T17:00:08.653Z,99182.88
2023-03-26T17:01:43.151Z,99182.00
2023-03-26T17:02:57.009Z,99181.06
2023-03-26T17:04:03.036Z,99176.50
2023-03-26T17:05:18.960Z,99175.47
2023-03-26T17:06:30.770Z,99184.28
2023-03-26T17:07:42.002Z,99176.31
2023-03-26T17:09:13.395Z,99186.94
2023-03-26T17:10:37.584Z,99186.09
2023-03-26T17:12:08.756Z,99185.25
2023-03-26T17:13:23.342Z,99185.44
2023-03-26T17:14:25.512Z,99189.06
2023-03-26T17:15:43.170Z,99190.00
2023-03-26T17:17:25.634Z,99187.50
2023-03-26T17:18:50.027Z,99184.97
2023-03-26T17:20:23.662Z,99188.59
2023-03-26T17:22:01.375Z,99187.81
2023-03-26T17:23:22.162Z,99187.16
2023-03-26T17:24:27.960Z,99193.38
2023-03-26T17:25:55.177Z,99187.31
2023-03-26T17:27:25.112Z,99197.09
2023-03-26T17:28:54.914Z,99192.72
2023-03-26T17:30:32.420Z,99193.75
2023-03-26T17:31:40.370Z,99192.06
2023-03-26T17:33:04.007Z,99190.34
2023-03-26T17:34:49.232Z,99192.13
2023-03-26T17:36:11.942Z,99192.25
2023-03-26T17:37:17.008Z,99199.44
2023-03-26T17:38:24.732Z,99199.44
2023-03-26T17:39:38.873Z,99193.28
2023-03-26T17:41:00.311Z,99201.34
2023-03-26T17:42:19.201Z,99198.78
2023-03-26T17:43:53.099Z,99201.44
2023-03-26T17:45:17.773Z,99198.69
2023-03-26T17:46:33.188Z,99200.28
2023-03-26T17:47:39.922Z,99194.97
2023-03-26T17:48:47.190Z,99198.41
2023-03-26T17:49:54.020Z,99200.13
2023-03-26T17:51:02.925Z,99197.38
2023-03-26T17:52:41.853Z,99201.66
2023-03-26T17:53:43.905Z,99199.19
2023-03-26T17:54:48.168Z,99193.94
2023-03-26T17:55:51.615Z,99193.19
2023-03-26T17:56:56.605Z,99195.16
2023-03-26T17:58:07.452Z,99201.78
2023-03-26T17:59:23.211Z,99190.56
2023-03-26T18:00:47.184Z,99202.59
2023-03-26T18:01:56.283Z,99203.06
2023-03-26T18:03:08.004Z,99200.75
2023-03-26T18:04:19.838Z,99205.47
2023-03-26T18:05:25.073Z,99199.53
2023-03-26T18:06:46.723Z,99202.50
2023-03-26T18:08:20.054Z,99200.06
2023-03-26T18:09:24.851Z,99202.16
2023-03-26T18:10:49.641Z,99194.34
2023-03-26T18:12:04.239Z,99199.06
2023-03-26T18:13:41.360Z,99194.97
2023-03-26T18:15:19.956Z,99202.31
2023-03-26T18:16:25.634Z,99195.47
2023-03-26T18:17:38.547Z,99184.06
2023-03-26T18:18:58.055Z,99184.16
2023-03-26T18:20:10.007Z,99197.63
2023-03-26T18:21:19.817Z,99191.53
2023-03-26T18:22:28.598Z,99193.41
2023-03-26T18:23:37.822Z,99188.09
2023-03-26T18:24:42.254Z,99191.69
2023-03-26T18:25:52.585Z,99186.56
2023-03-26T18:27:16.896Z,99189.22
2023-03-26T18:28:18.678Z,99189.38
2023-03-26T18:29:35.611Z,99192.81
2023-03-26T18:30:47.439Z,99196.41
2023-03-26T18:31:54.280Z,99198.19
2023-03-26T18:33:14.069Z,99195.47
2023-03-26T18:34:20.619Z,99193.75
2023-03-26T18:35:24.268Z,99194.59
2023-03-26T18:36:30.453Z,99187.50
2023-03-26T18:37:34.455Z,99189.09
2023-03-26T18:38:38.489Z,99195.13
2023-03-26T18:40:02.312Z,99190.75
2023-03-26T18:41:06.695Z,99192.56
2023-03-26T18:42:22.836Z,99203.00
2023-03-26T18:43:34.914Z,99191.69
2023-03-26T18:44:37.342Z,99189.81
2023-03-26T18:45:40.619Z,99195.03
2023-03-26T18:46:43.622Z,99187.91
2023-03-26T18:47:47.915Z,99187.06
2023-03-26T18:48:49.871Z,99187.91
2023-03-26T18:49:55.764Z,99191.34
2023-03-26T18:51:05.987Z,99186.03
2023-03-26T18:52:14.480Z,99190.50
2023-03-26T18:53:32.501Z,99189.47
2023-03-26T18:54:36.680Z,99190.50
2023-03-26T18:55:39.753Z,99180.91
2023-03-26T18:56:43.837Z,99181.75
2023-03-26T18:57:51.617Z,99182.72
2023-03-26T18:58:57.868Z,99181.84
2023-03-26T19:00:17.339Z,99180.13
2023-03-26T19:01:25.955Z,99174.97
2023-03-26T19:02:28.310Z,99171.66
2023-03-26T19:03:36.367Z,99178.75
2023-03-26T19:04:38.671Z,99172.00
2023-03-26T19:05:41.049Z,99166.06
2023-03-26T19:06:44.352Z,99171.53
2023-03-26T19:07:47.382Z,99169.06
2023-03-26T19:08:49.713Z,99169.31
2023-03-26T19:09:56.422Z,99172.13
2023-03-26T19:11:02.438Z,99172.28
2023-03-26T19:12:07.728Z,99176.72
2023-03-26T19:13:15.219Z,99175.09
2023-03-26T19:14:19.773Z,99184.94
2023-03-26T19:15:23.289Z,99170.13
2023-03-26T19:16:29.964Z,99171.06
2023-03-26T19:17:38.824Z,99174.66
2023-03-26T19:18:44.154Z,99173.09
2023-03-26T19:19:46.363Z,99170.59
2023-03-26T19:20:48.172Z,99167.19
2023-03-26T19:21:50.779Z,99167.25
2023-03-26T19:22:53.532Z,99167.34
2023-03-26T19:23:56.479Z,99166.56
2023-03-26T19:25:01.444Z,99169.31
2023-03-26T19:26:07.860Z,99163.22
2023-03-26T19:27:11.237Z,99168.59
2023-03-26T19:28:22.871Z,99162.38
2023-03-26T19:29:28.610Z,99173.91
2023-03-26T19:30:33.986Z,99171.34
2023-03-26T19:31:39.094Z,99168.75
2023-03-26T19:32:41.228Z,99169.72
2023-03-26T19:33:44.559Z,99164.47
2023-03-26T19:34:48.453Z,99171.69
2023-03-26T19:36:17.936Z,99168.94
2023-03-26T19:37:25.459Z,99170.03
2023-03-26T19:38:39.396Z,99173.63
2023-03-26T19:39:44.378Z,99175.50
2023-03-26T19:40:46.490Z,99171.16
2023-03-26T19:41:51.735Z,99169.34
2023-03-26T19:42:53.792Z,99180.88
2023-03-26T19:43:59.878Z,99180.88
2023-03-26T19:45:04.311Z,99180.03
2023-03-26T19:46:06.570Z,99179.16
2023-03-26T19:47:35.231Z,99173.97
2023-03-26T19:48:45.897Z,99176.63
2023-03-26T19:49:56.279Z,99176.63
2023-03-26T19:51:05.019Z,99175.66
2023-03-26T19:52:15.194Z,99168.56
2023-03-26T19:53:25.555Z,99171.16
2023-03-26T19:54:27.343Z,99179.09
2023-03-26T19:55:29.438Z,99165.84
2023-03-26T19:56:31.683Z,99167.53
2023-03-26T19:57:38.144Z,99174.56
2023-03-26T19:58:41.761Z,99171.84
2023-03-26T19:59:43.677Z,99167.38
2023-03-26T20:00:53.135Z,99168.22
2023-03-26T20:01:55.081Z,99172.53
2023-03-26T20:02:57.828Z,99175.09
2023-03-26T20:04:07.589Z,99175.97
2023-03-26T20:05:19.586Z,99173.22
2023-03-26T20:06:30.821Z,99167.06
2023-03-26T20:07:40.183Z,99168.75
2023-03-26T20:08:42.895Z,99162.53
2023-03-26T20:09:45.588Z,99164.25
2023-03-26T20:10:47.584Z,99162.44
2023-03-26T20:11:50.431Z,99166.91
2023-03-26T20:12:52.789Z,99161.53
2023-03-26T20:13:54.645Z,99173.06
2023-03-26T20:14:56.614Z,99161.59
2023-03-26T20:16:07.422Z,99158.00
2023-03-26T20:17:14.587Z,99166.91
2023-03-26T20:18:16.383Z,99162.59
2023-03-26T20:19:19.269Z,99166.28
2023-03-26T20:20:24.652Z,99167.22
2023-03-26T20:21:26.750Z,99169.94
2023-03-26T20:22:28.666Z,99163.88
2023-03-26T20:23:30.561Z,99163.94
2023-03-26T20:24:33.644Z,99169.34
2023-03-26T20:25:49.265Z,99160.59
2023-03-26T20:26:51.244Z,99164.09
2023-03-26T20:27:55.445Z,99165.06
2023-03-26T20:28:57.297Z,99164.09
2023-03-26T20:29:59.140Z,99164.97
2023-03-26T20:31:01.246Z,99155.22
2023-03-26T20:32:06.670Z,99156.94
2023-03-26T20:33:17.118Z,99158.63
2023-03-26T20:34:23.684Z,99155.06
2023-03-26T20:35:35.957Z,99152.41
2023-03-26T20:36:39.242Z,99149.75
2023-03-26T20:37:41.964Z,99149.75
2023-03-26T20:38:45.198Z,99147.13
2023-03-26T20:39:47.124Z,99152.41
2023-03-26T20:40:49.708Z,99148.81
2023-03-26T20:41:53.647Z,99142.72
2023-03-26T20:42:55.569Z,99146.22
2023-03-26T20:43:57.502Z,99135.72
2023-03-26T20:44:59.322Z,99148.97
2023-03-26T20:46:01.865Z,99143.69
2023-03-26T20:47:03.929Z,99140.16
2023-03-26T20:48:06.164Z,99139.31
2023-03-26T20:49:08.116Z,99141.03
2023-03-26T20:50:15.450Z,99140.16
2023-03-26T20:51:17.944Z,99145.47
2023-03-26T20:52:19.773Z,99133.06
2023-03-26T20:53:21.552Z,99136.50
2023-03-26T20:54:25.795Z,99140.00
2023-03-26T20:55:28.457Z,99143.56
2023-03-26T20:56:30.511Z,99144.47
2023-03-26T20:57:33.772Z,99142.56
2023-03-26T20:58:35.872Z,99135.56
2023-03-26T20:59:37.716Z,99139.00
2023-03-26T21:00:39.884Z,99139.00
2023-03-26T21:01:42.279Z,99138.91
2023-03-26T21:02:44.286Z,99138.91
2023-03-26T21:03:46.570Z,99148.50
2023-03-26T21:04:48.415Z,99141.38
2023-03-26T21:05:52.516Z,99138.66
2023-03-26T21:07:00.213Z,99145.69
2023-03-26T21:08:05.854Z,99134.28
2023-03-26T21:09:14.981Z,99142.06
2023-03-26T21:10:18.534Z,99135.06
2023-03-26T21:11:27.774Z,99135.84
2023-03-26T21:12:39.249Z,99141.06
2023-03-26T21:13:50.810Z,99134.91
2023-03-26T21:14:55.951Z,99146.28
2023-03-26T21:16:00.438Z,99134.72
2023-03-26T21:17:03.278Z,99133.03
2023-03-26T21:18:05.745Z,99130.28
2023-03-26T21:19:10.311Z,99126.72
2023-03-26T21:20:13.575Z,99129.34
2023-03-26T21:21:35.859Z,99130.22
2023-03-26T21:22:49.249Z,99132.88
2023-03-26T21:24:17.349Z,99126.59
2023-03-26T21:25:27.396Z,99123.16
2023-03-26T21:26:44.127Z,99125.81
2023-03-26T21:27:55.647Z,99128.47
2023-03-26T21:28:59.503Z,99128.41
2023-03-26T21:30:02.027Z,99132.69
2023-03-26T21:31:06.216Z,99130.78
2023-03-26T21:32:13.839Z,99128.13
2023-03-26T21:33:15.634Z,99116.59
2023-03-26T21:34:17.897Z,99120.00
2023-03-26T21:35:20.505Z,99112.06
2023-03-26T21:36:23.239Z,99124.22
2023-03-26T21:37:25.875Z,99123.28
2023-03-26T21:38:28.087Z,99113.34
2023-03-26T21:39:30.494Z,99115.75
2023-03-26T21:40:33.142Z,99120.13
2023-03-26T21:42:05.262Z,99114.66
2023-03-26T21:43:11.733Z,99120.72
2023-03-26T21:44:14.599Z,99111.06
2023-03-26T21:45:17.577Z,99112.00
2023-03-26T21:46:20.091Z,99116.53
2023-03-26T21:47:22.166Z,99113.00
2023-03-26T21:48:24.502Z,99108.75
2023-03-26T21:49:26.913Z,99110.63
2023-03-26T21:50:29.214Z,99112.50
2023-03-26T21:51:32.308Z,99107.34
2023-03-26T21:52:35.119Z,99109.34
2023-03-26T21:53:37.364Z,99109.41
2023-03-26T21:54:40.981Z,99101.59
2023-03-26T21:56:18.252Z,99107.09
2023-03-26T21:57:32.180Z,99101.94
2023-03-26T21:59:15.105Z,99104.75
2023-03-26T22:00:18.984Z,99105.09
2023-03-26T22:01:32.201Z,99097.41
2023-03-26T22:03:06.194Z,99094.81
2023-03-26T22:04:11.251Z,99092.50
2023-03-26T22:05:23.367Z,99096.25
2023-03-26T22:06:27.999Z,99098.28
2023-03-26T22:08:01.789Z,99101.28
2023-03-26T22:09:04.803Z,99092.69
2023-03-26T22:10:07.234Z,99093.75
2023-03-26T22:11:11.486Z,99093.03
2023-03-26T22:12:13.346Z,99095.94
2023-03-26T22:13:15.301Z,99084.47
2023-03-26T22:14:18.174Z,99088.22
2023-03-26T22:15:20.626Z,99090.09
2023-03-26T22:16:25.559Z,99083.91
2023-03-26T22:17:27.841Z,99082.22
2023-03-26T22:18:30.292Z,99084.06
2023-03-26T22:19:32.274Z,99083.22
2023-03-26T22:20:34.351Z,99078.88
2023-03-26T22:21:36.236Z,99080.75
2023-03-26T22:22:38.110Z,99080.66
2023-03-26T22:23:40.225Z,99077.16
2023-03-26T22:24:42.385Z,99080.66
2023-03-26T22:25:45.592Z,99078.03
2023-03-26T22:26:47.499Z,99080.50
2023-03-26T22:27:50.755Z,99076.06
2023-03-26T22:28:53.382Z,99076.91
2023-03-26T22:29:55.673Z,99072.47
2023-03-26T22:30:58.360Z,99077.75
2023-03-26T22:32:00.414Z,99075.91
2023-03-26T22:33:02.252Z,99074.88
2023-03-26T22:34:04.341Z,99074.03
2023-03-26T22:35:07.240Z,99077.44
2023-03-26T22:36:23.169Z,99074.63
2023-03-26T22:37:26.077Z,99074.47
2023-03-26T22:38:27.885Z,99072.44
2023-03-26T22:39:29.802Z,99069.47
2023-03-26T22:40:31.980Z,99078.78
2023-03-26T22:41:33.792Z,99077.59
2023-03-26T22:42:36.696Z,99075.56
2023-03-26T22:43:39.083Z,99067.38
2023-03-26T22:44:41.415Z,99075.00
2023-03-26T22:45:49.947Z,99064.97
2023-03-26T22:46:52.600Z,99070.88
2023-03-26T22:48:03.439Z,99064.56
2023-03-26T22:49:06.452Z,99070.38
2023-03-26T22:50:10.872Z,99078.94
2023-03-26T22:51:12.912Z,99070.72
2023-03-26T22:52:14.825Z,99075.00
2023-03-26T22:53:16.945Z,99079.47
2023-03-26T22:54:18.898Z,99069.69
2023-03-26T22:55:29.060Z,99086.47
2023-03-26T22:56:31.991Z,99077.59
2023-03-26T22:57:34.209Z,99078.44
2023-03-26T22:58:36.381Z,99069.53
2023-03-26T22:59:38.243Z,99079.22
2023-03-26T23:00:40.144Z,99077.41
2023-03-26T23:01:42.084Z,99074.66
2023-03-26T23:02:47.614Z,99074.34
2023-03-26T23:03:49.799Z,99069.75
2023-03-26T23:04:52.752Z,99078.38
2023-03-26T23:05:58.182Z,99073.81
2023-03-26T23:07:00.267Z,99075.56
2023-03-26T23:08:02.071Z,99073.81
2023-03-26T23:09:07.232Z,99077.34
2023-03-26T23:10:11.286Z,99079.13
2023-03-26T23:11:17.289Z,99069.22
2023-03-26T23:12:19.149Z,99070.25
2023-03-26T23:13:22.084Z,99084.44
2023-03-26T23:14:24.309Z,99083.59
2023-03-26T23:15:26.242Z,99081.03
2023-03-26T23:16:28.364Z,99071.28
2023-03-26T23:17:30.314Z,99073.06
2023-03-26T23:18:32.333Z,99080.00
2023-03-26T23:19:34.688Z,99076.41
2023-03-26T23:20:39.408Z,99086.19
2023-03-26T23:21:41.555Z,99075.38
2023-03-26T23:22:43.824Z,99079.72
2023-03-26T23:23:46.312Z,99077.75
2023-03-26T23:24:48.304Z,99086.44
2023-03-26T23:25:51.989Z,99088.91
2023-03-26T23:26:53.858Z,99082.72
2023-03-26T23:27:55.750Z,99086.25
2023-03-26T23:28:57.537Z,99081.00
2023-03-26T23:29:59.504Z,99082.72
2023-03-26T23:31:04.450Z,99085.28
2023-03-26T23:32:24.026Z,99089.66
2023-03-26T23:33:31.768Z,99088.91
2023-03-26T23:34:34.159Z,99083.78
2023-03-26T23:35:36.232Z,99089.09
2023-03-26T23:36:38.086Z,99089.94
2023-03-26T23:37:42.732Z,99088.19
2023-03-26T23:38:49.049Z,99089.25
2023-03-26T23:39:51.942Z,99085.66
2023-03-26T23:40:57.442Z,99092.84
2023-03-26T23:41:59.582Z,99091.03
2023-03-26T23:43:01.466Z,99084.13
2023-03-26T23:44:04.174Z,99087.69
2023-03-26T23:45:06.855Z,99086.00
2023-03-26T23:46:12.019Z,99085.16
2023-03-26T23:47:16.849Z,99075.38
2023-03-26T23:48:23.941Z,99070.91
2023-03-26T23:49:26.826Z,99069.13
2023-03-26T23:50:29.596Z,99069.13
2023-03-26T23:51:32.548Z,99063.97
2023-03-26T23:52:34.570Z,99073.81
2023-03-26T23:53:36.592Z,99072.06
2023-03-26T23:54:38.561Z,99069.47
2023-03-26T23:55:47.545Z,99064.16
2023-03-26T23:56:49.440Z,99065.84
2023-03-26T23:57:51.713Z,99061.31
2023-03-26T23:58:54.017Z,99053.34
2023-03-26T23:59:56.459Z,99060.38
